PSEVM SBBW-SBPJ
Flight info
| Callsign | PSEVM |
|---|---|
| Flight time | N/A |
| Altitude | 31000 |
| Route | OPVEL DCT UGUGA DCT VUGOS DCT LIBEC |
| Aircraft | TBM9/L-SDFGRWY/S |
Departure
| Time | 2026-05-04 01:08 |
|---|---|
| Airport | Barra do Garças Airport (SBBW) |
Arrival
| Time | N/A |
|---|---|
| Airport | Brigadeiro Lysias Rodrigues Airport (SBPJ) |
| Time | Latitude | Longitude | Altitude | Speed | Heading |
|---|---|---|---|---|---|
| 2026-05-04 01:02 | -15.85915 | -52.39014 | 1169 ft | 0 kts | 52° |
| 2026-05-04 01:06 | -15.85910 | -52.39008 | 1169 ft | 3 kts | 72° |
| 2026-05-04 01:07 | -15.85980 | -52.38991 | 1162 ft | 20 kts | 170° |
| 2026-05-04 01:07 | -15.86079 | -52.39070 | 1162 ft | 20 kts | 225° |
| 2026-05-04 01:07 | -15.86178 | -52.39185 | 1160 ft | 23 kts | 231° |
| 2026-05-04 01:07 | -15.86309 | -52.39188 | 1159 ft | 23 kts | 141° |
| 2026-05-04 01:08 | -15.86295 | -52.39099 | 1159 ft | 27 kts | 50° |
| 2026-05-04 01:08 | -15.86027 | -52.38755 | 1157 ft | 93 kts | 51° |
| 2026-05-04 01:08 | -15.85498 | -52.38145 | 1383 ft | 124 kts | 42° |
| 2026-05-04 01:08 | -15.84812 | -52.37546 | 1840 ft | 137 kts | 41° |
| 2026-05-04 01:09 | -15.84088 | -52.36835 | 2300 ft | 149 kts | 46° |
| 2026-05-04 01:09 | -15.83328 | -52.36047 | 2776 ft | 159 kts | 48° |
| 2026-05-04 01:09 | -15.82529 | -52.35209 | 3267 ft | 166 kts | 48° |
| 2026-05-04 01:09 | -15.81702 | -52.34344 | 3747 ft | 171 kts | 48° |
| 2026-05-04 01:10 | -15.80851 | -52.33455 | 4229 ft | 176 kts | 48° |
| 2026-05-04 01:10 | -15.79981 | -52.32544 | 4726 ft | 180 kts | 48° |
| 2026-05-04 01:10 | -15.79093 | -52.31613 | 5205 ft | 183 kts | 48° |
| 2026-05-04 01:10 | -15.78190 | -52.30667 | 5684 ft | 186 kts | 48° |
| 2026-05-04 01:11 | -15.77274 | -52.29708 | 6178 ft | 188 kts | 48° |
| 2026-05-04 01:11 | -15.76348 | -52.28740 | 6648 ft | 190 kts | 48° |
| 2026-05-04 01:11 | -15.75415 | -52.27763 | 7116 ft | 191 kts | 48° |
| 2026-05-04 01:11 | -15.74478 | -52.26783 | 7591 ft | 192 kts | 48° |
| 2026-05-04 01:12 | -15.73537 | -52.25799 | 8068 ft | 192 kts | 48° |
| 2026-05-04 01:12 | -15.72594 | -52.24813 | 8557 ft | 193 kts | 48° |
| 2026-05-04 01:12 | -15.71648 | -52.23824 | 9054 ft | 193 kts | 48° |
| 2026-05-04 01:12 | -15.70701 | -52.22834 | 9554 ft | 193 kts | 48° |
| 2026-05-04 01:13 | -15.69754 | -52.21844 | 10040 ft | 193 kts | 48° |
| 2026-05-04 01:13 | -15.68806 | -52.20855 | 10489 ft | 193 kts | 48° |
| 2026-05-04 01:13 | -15.67859 | -52.19864 | 10945 ft | 194 kts | 48° |
| 2026-05-04 01:13 | -15.66910 | -52.18873 | 11410 ft | 194 kts | 48° |
| 2026-05-04 01:14 | -15.65957 | -52.17878 | 11880 ft | 194 kts | 48° |
| 2026-05-04 01:14 | -15.65005 | -52.16884 | 12362 ft | 195 kts | 48° |
| 2026-05-04 01:14 | -15.64050 | -52.15886 | 12843 ft | 195 kts | 48° |
| 2026-05-04 01:14 | -15.63091 | -52.14886 | 13337 ft | 196 kts | 48° |
| 2026-05-04 01:15 | -15.62132 | -52.13885 | 13830 ft | 196 kts | 48° |
| 2026-05-04 01:15 | -15.61170 | -52.12881 | 14274 ft | 196 kts | 47° |
| 2026-05-04 01:15 | -15.60208 | -52.11877 | 14721 ft | 197 kts | 47° |
| 2026-05-04 01:15 | -15.59242 | -52.10869 | 15176 ft | 197 kts | 47° |
| 2026-05-04 01:16 | -15.58274 | -52.09859 | 15638 ft | 197 kts | 47° |
| 2026-05-04 01:16 | -15.57304 | -52.08848 | 16108 ft | 198 kts | 47° |
| 2026-05-04 01:16 | -15.56333 | -52.07835 | 16580 ft | 198 kts | 47° |
| 2026-05-04 01:16 | -15.55361 | -52.06821 | 17063 ft | 199 kts | 47° |
| 2026-05-04 01:17 | -15.54385 | -52.05804 | 17556 ft | 199 kts | 46° |
| 2026-05-04 01:17 | -15.53409 | -52.04786 | 18056 ft | 199 kts | 46° |
| 2026-05-04 01:17 | -15.52433 | -52.03770 | 18519 ft | 199 kts | 46° |
| 2026-05-04 01:17 | -15.51457 | -52.02752 | 18957 ft | 199 kts | 46° |
| 2026-05-04 01:18 | -15.50482 | -52.01735 | 19400 ft | 199 kts | 46° |
| 2026-05-04 01:18 | -15.49506 | -52.00719 | 19851 ft | 199 kts | 46° |
| 2026-05-04 01:18 | -15.48530 | -51.99703 | 20306 ft | 198 kts | 46° |
| 2026-05-04 01:18 | -15.47559 | -51.98691 | 20768 ft | 198 kts | 46° |
| 2026-05-04 01:19 | -15.46588 | -51.97680 | 21238 ft | 197 kts | 46° |
| 2026-05-04 01:19 | -15.45621 | -51.96673 | 21718 ft | 197 kts | 45° |
| 2026-05-04 01:19 | -15.44657 | -51.95670 | 22203 ft | 196 kts | 45° |
| 2026-05-04 01:19 | -15.43698 | -51.94672 | 22700 ft | 195 kts | 45° |
| 2026-05-04 01:20 | -15.42744 | -51.93679 | 23211 ft | 194 kts | 45° |
| 2026-05-04 01:20 | -15.41798 | -51.92695 | 23683 ft | 192 kts | 45° |
| 2026-05-04 01:20 | -15.40859 | -51.91719 | 24107 ft | 190 kts | 45° |
| 2026-05-04 01:20 | -15.39927 | -51.90750 | 24535 ft | 188 kts | 45° |
| 2026-05-04 01:21 | -15.39009 | -51.89796 | 24968 ft | 186 kts | 45° |
| 2026-05-04 01:21 | -15.38103 | -51.88856 | 25406 ft | 183 kts | 44° |
| 2026-05-04 01:21 | -15.37215 | -51.87933 | 25851 ft | 179 kts | 44° |
| 2026-05-04 01:21 | -15.36346 | -51.87032 | 26303 ft | 174 kts | 44° |
| 2026-05-04 01:22 | -15.35503 | -51.86158 | 26752 ft | 168 kts | 44° |
| 2026-05-04 01:22 | -15.34705 | -51.85333 | 27201 ft | 160 kts | 44° |
| 2026-05-04 01:22 | -15.33942 | -51.84548 | 27650 ft | 148 kts | 43° |
| 2026-05-04 01:22 | -15.33245 | -51.83841 | 28081 ft | 131 kts | 41° |
| 2026-05-04 01:23 | -15.32651 | -51.83190 | 27899 ft | 124 kts | 60° |
| 2026-05-04 01:23 | -15.32243 | -51.82159 | 22659 ft | 191 kts | 91° |
| 2026-05-04 01:23 | -15.33207 | -51.81340 | 15152 ft | 233 kts | 197° |
| 2026-05-04 01:23 | -15.33356 | -51.82667 | 8336 ft | 236 kts | 347° |
| 2026-05-04 01:24 | -15.33150 | -51.81786 | 2343 ft | 226 kts | 178° |
| 2026-05-04 01:24 | -15.33639 | -51.82034 | 917 ft | 0 kts | 217° |